createdAt,value
2022-08-10T00:01:44.136Z,63.46
2022-08-10T00:04:10.991Z,62.10
2022-08-10T00:06:49.240Z,63.86
2022-08-10T00:09:15.999Z,62.93
2022-08-10T00:11:42.834Z,63.51
2022-08-10T00:14:09.677Z,63.97
2022-08-10T00:16:36.525Z,65.88
2022-08-10T00:19:03.467Z,65.20
2022-08-10T00:21:30.283Z,63.85
2022-08-10T00:23:57.042Z,64.38
2022-08-10T00:26:23.972Z,64.65
2022-08-10T00:28:50.734Z,64.75
2022-08-10T00:31:17.619Z,67.18
2022-08-10T00:33:44.417Z,66.87
2022-08-10T00:36:11.351Z,65.57
2022-08-10T00:38:38.234Z,65.88
2022-08-10T00:41:05.393Z,66.04
2022-08-10T00:43:32.284Z,67.51
2022-08-10T00:46:00.437Z,68.64
2022-08-10T00:48:30.705Z,68.27
2022-08-10T00:50:59.400Z,67.88
2022-08-10T00:53:29.415Z,67.05
2022-08-10T00:57:12.756Z,65.41
2022-08-10T00:58:44.249Z,67.42
2022-08-10T01:02:10.936Z,67.84
2022-08-10T01:04:57.693Z,68.35
2022-08-10T01:07:06.413Z,68.64
2022-08-10T01:09:57.411Z,69.75
2022-08-10T01:12:47.104Z,68.70
2022-08-10T01:15:34.268Z,68.92
2022-08-10T01:18:05.518Z,66.95
2022-08-10T01:20:39.488Z,66.66
2022-08-10T01:23:26.563Z,64.18
2022-08-10T01:26:31.296Z,66.64
2022-08-10T01:29:26.400Z,66.36
2022-08-10T01:31:57.719Z,67.62
2022-08-10T01:34:32.747Z,68.42
2022-08-10T01:37:06.739Z,67.60
2022-08-10T01:39:38.724Z,67.75
2022-08-10T01:42:06.638Z,68.45
2022-08-10T01:44:39.664Z,67.05
2022-08-10T01:47:32.003Z,67.14
2022-08-10T01:50:10.666Z,65.49
2022-08-10T01:52:42.331Z,64.23
2022-08-10T01:55:10.891Z,64.89
2022-08-10T01:57:38.976Z,65.80
2022-08-10T02:00:07.070Z,66.44
2022-08-10T02:02:34.739Z,66.59
2022-08-10T02:05:02.687Z,67.50
2022-08-10T02:07:30.934Z,67.18
2022-08-10T02:09:59.778Z,66.77
2022-08-10T02:12:31.837Z,65.17
2022-08-10T02:15:04.751Z,65.77
2022-08-10T02:18:00.781Z,65.91
2022-08-10T02:20:49.857Z,66.09
2022-08-10T02:23:25.982Z,65.58
2022-08-10T02:25:55.309Z,65.99
2022-08-10T02:28:30.336Z,66.49
2022-08-10T02:31:07.040Z,66.01
2022-08-10T02:33:39.309Z,64.86
2022-08-10T02:36:26.144Z,66.94
2022-08-10T02:38:58.526Z,68.84
2022-08-10T02:45:14.972Z,69.20
2022-08-10T02:45:22.066Z,67.94
2022-08-10T02:48:01.577Z,68.19
2022-08-10T02:50:39.728Z,68.88
2022-08-10T02:53:07.101Z,68.16
2022-08-10T02:55:48.311Z,67.38
2022-08-10T02:58:20.395Z,66.65
2022-08-10T03:00:52.263Z,68.26
2022-08-10T03:03:22.566Z,68.09
2022-08-10T03:05:52.819Z,69.67
2022-08-10T03:08:22.973Z,69.10
2022-08-10T03:10:50.878Z,68.87
2022-08-10T03:13:18.133Z,67.39
2022-08-10T03:15:45.539Z,67.74
2022-08-10T03:18:13.632Z,68.38
2022-08-10T03:20:41.946Z,69.49
2022-08-10T03:23:13.527Z,69.57
2022-08-10T03:25:40.756Z,69.58
2022-08-10T03:28:08.094Z,68.86
2022-08-10T03:30:35.513Z,68.67
2022-08-10T03:33:04.694Z,67.92
2022-08-10T03:35:32.075Z,68.37
2022-08-10T03:38:00.237Z,65.76
2022-08-10T03:40:44.975Z,68.98
2022-08-10T03:43:18.579Z,69.35
2022-08-10T03:45:58.291Z,68.16
2022-08-10T03:48:44.638Z,69.17
2022-08-10T03:51:15.023Z,69.56
2022-08-10T03:54:04.336Z,68.67
2022-08-10T03:56:32.302Z,69.37
2022-08-10T03:59:00.835Z,68.36
2022-08-10T04:02:45.980Z,68.84
2022-08-10T04:04:22.536Z,69.27
2022-08-10T04:06:56.015Z,69.80
2022-08-10T04:09:43.435Z,70.85
2022-08-10T04:12:15.664Z,70.70
2022-08-10T04:14:50.666Z,70.06
2022-08-10T04:18:01.332Z,69.27
2022-08-10T04:20:18.230Z,69.03
2022-08-10T04:22:48.575Z,69.08
2022-08-10T04:25:15.609Z,70.13
2022-08-10T04:27:42.856Z,70.03
2022-08-10T04:30:10.257Z,69.67
2022-08-10T04:32:37.998Z,70.19
2022-08-10T04:35:05.887Z,70.64
2022-08-10T04:37:34.936Z,71.02
2022-08-10T04:40:02.069Z,70.72
2022-08-10T04:42:29.111Z,71.44
2022-08-10T04:44:57.067Z,70.73
2022-08-10T04:47:57.845Z,70.86
2022-08-10T04:50:10.903Z,69.85
2022-08-10T04:52:37.764Z,68.79
2022-08-10T04:55:05.236Z,69.11
2022-08-10T04:57:32.018Z,69.54
2022-08-10T04:59:58.983Z,70.52
2022-08-10T05:02:31.377Z,70.40
2022-08-10T05:04:59.167Z,70.52
2022-08-10T05:07:26.040Z,70.74
2022-08-10T05:10:02.146Z,69.92
2022-08-10T05:12:37.935Z,70.70
2022-08-10T05:15:12.453Z,70.86
2022-08-10T05:17:40.899Z,69.71
2022-08-10T05:20:27.714Z,70.66
2022-08-10T05:22:54.505Z,70.46
2022-08-10T05:25:21.363Z,70.32
2022-08-10T05:27:48.195Z,70.16
2022-08-10T05:30:21.977Z,70.53
2022-08-10T05:32:56.301Z,71.02
2022-08-10T05:35:25.268Z,70.80
2022-08-10T05:38:09.061Z,69.61
2022-08-10T05:40:41.142Z,68.86
2022-08-10T05:43:12.933Z,68.35
2022-08-10T05:46:16.809Z,69.34
2022-08-10T05:48:54.954Z,68.09
2022-08-10T05:51:16.129Z,67.77
2022-08-10T05:54:01.746Z,68.86
2022-08-10T05:56:57.033Z,67.31
2022-08-10T06:00:12.614Z,66.01
2022-08-10T06:02:32.867Z,65.27
2022-08-10T06:05:26.052Z,66.96
2022-08-10T06:08:12.277Z,68.17
2022-08-10T06:12:25.491Z,68.26
2022-08-10T06:13:59.722Z,67.36
2022-08-10T06:16:34.920Z,67.03
2022-08-10T06:19:03.565Z,66.95
2022-08-10T06:21:30.405Z,66.86
2022-08-10T06:23:59.241Z,66.96
2022-08-10T06:26:26.170Z,65.81
2022-08-10T06:29:08.076Z,66.16
2022-08-10T06:31:47.981Z,66.83
2022-08-10T06:34:24.251Z,66.35
2022-08-10T06:36:53.119Z,65.74
2022-08-10T06:39:33.386Z,64.69
2022-08-10T06:42:15.924Z,64.66
2022-08-10T06:45:01.182Z,64.04
2022-08-10T06:47:55.999Z,64.31
2022-08-10T06:50:55.941Z,64.13
2022-08-10T06:53:53.745Z,63.61
2022-08-10T06:56:18.020Z,63.90
2022-08-10T06:58:53.166Z,63.51
2022-08-10T07:01:21.792Z,64.29
2022-08-10T07:04:12.317Z,64.57
2022-08-10T07:06:43.407Z,64.39
2022-08-10T07:09:10.591Z,64.41
2022-08-10T07:11:44.333Z,64.92
2022-08-10T07:14:15.499Z,64.23
2022-08-10T07:16:46.074Z,64.67
2022-08-10T07:19:13.546Z,64.57
2022-08-10T07:21:42.660Z,64.83
2022-08-10T07:24:10.624Z,65.60
2022-08-10T07:26:39.916Z,65.19
2022-08-10T07:29:07.219Z,65.50
2022-08-10T07:31:57.883Z,65.75
2022-08-10T07:34:28.508Z,65.90
2022-08-10T07:37:01.580Z,65.90
2022-08-10T07:39:58.008Z,65.34
2022-08-10T07:42:22.878Z,65.18
2022-08-10T07:44:50.641Z,65.24
2022-08-10T07:47:46.219Z,65.35
2022-08-10T07:50:11.628Z,64.59
2022-08-10T07:52:39.941Z,64.29
2022-08-10T07:55:08.425Z,64.70
2022-08-10T07:57:40.019Z,64.80
2022-08-10T08:00:10.661Z,64.07
2022-08-10T08:02:46.321Z,64.07
2022-08-10T08:05:57.327Z,63.67
2022-08-10T08:08:01.882Z,63.68
2022-08-10T08:10:29.679Z,63.52
2022-08-10T08:13:01.403Z,63.35
2022-08-10T08:16:16.908Z,62.78
2022-08-10T08:18:21.684Z,63.24
2022-08-10T08:20:54.357Z,62.60
2022-08-10T08:24:04.780Z,62.47
2022-08-10T08:26:10.651Z,61.75
2022-08-10T08:28:38.180Z,61.49
2022-08-10T08:31:05.435Z,61.99
2022-08-10T08:33:41.576Z,62.05
2022-08-10T08:36:10.162Z,60.92
2022-08-10T08:38:37.428Z,60.79
2022-08-10T08:41:28.679Z,60.11
2022-08-10T08:44:08.003Z,59.92
2022-08-10T08:46:59.646Z,59.38
2022-08-10T08:50:04.955Z,58.91
2022-08-10T08:52:35.944Z,57.80
2022-08-10T08:56:03.281Z,57.43
2022-08-10T08:58:27.619Z,57.66
2022-08-10T09:01:17.704Z,57.55
2022-08-10T09:03:52.707Z,56.81
2022-08-10T09:06:41.244Z,56.84
2022-08-10T09:09:21.333Z,56.55
2022-08-10T09:12:07.294Z,55.75
2022-08-10T09:14:49.608Z,54.86
2022-08-10T09:17:24.357Z,55.36
2022-08-10T09:20:04.556Z,55.18
2022-08-10T09:22:43.319Z,55.17
2022-08-10T09:25:24.323Z,54.68
2022-08-10T09:28:00.173Z,54.72
2022-08-10T09:31:03.645Z,54.78
2022-08-10T09:36:20.305Z,54.14
2022-08-10T09:36:32.868Z,54.47
2022-08-10T09:39:06.632Z,53.61
2022-08-10T09:41:46.948Z,53.72
2022-08-10T09:44:57.175Z,53.20
2022-08-10T09:48:10.374Z,53.26
2022-08-10T09:51:22.716Z,52.06
2022-08-10T09:53:44.554Z,51.71
2022-08-10T09:56:50.315Z,51.60
2022-08-10T10:00:01.709Z,51.20
2022-08-10T10:02:34.631Z,51.66
2022-08-10T10:05:51.304Z,51.12
2022-08-10T10:08:22.212Z,50.55
2022-08-10T10:10:51.708Z,51.48
2022-08-10T10:13:41.497Z,51.50
2022-08-10T10:16:40.545Z,50.41
2022-08-10T10:19:21.094Z,50.30
2022-08-10T10:22:13.133Z,50.90
2022-08-10T10:24:41.912Z,49.89
2022-08-10T10:27:23.171Z,50.60
2022-08-10T10:30:22.515Z,48.79
2022-08-10T10:32:59.577Z,48.59
2022-08-10T10:35:37.329Z,48.81
2022-08-10T10:38:07.325Z,48.48
2022-08-10T10:41:03.815Z,48.83
2022-08-10T10:43:45.830Z,48.27
2022-08-10T10:46:46.080Z,48.20
2022-08-10T10:49:35.673Z,48.54
2022-08-10T10:52:17.999Z,47.88
2022-08-10T10:55:04.045Z,48.16
2022-08-10T10:58:00.526Z,47.90
2022-08-10T11:01:03.163Z,47.95
2022-08-10T11:03:39.208Z,48.21
2022-08-10T11:06:12.216Z,48.40
2022-08-10T11:08:44.774Z,47.24
2022-08-10T11:12:01.523Z,47.74
2022-08-10T11:14:33.670Z,48.68
2022-08-10T11:17:19.588Z,47.81
2022-08-10T11:20:20.567Z,47.38
2022-08-10T11:22:58.614Z,47.88
2022-08-10T11:25:33.491Z,47.65
2022-08-10T11:28:18.800Z,46.97
2022-08-10T11:31:11.803Z,46.92
2022-08-10T11:34:03.777Z,46.42
2022-08-10T11:36:43.132Z,47.77
2022-08-10T11:39:19.115Z,47.14
2022-08-10T11:42:10.196Z,47.93
2022-08-10T11:44:54.863Z,47.56
2022-08-10T11:47:30.163Z,47.28
2022-08-10T11:50:04.461Z,47.50
2022-08-10T11:52:49.755Z,47.80
2022-08-10T11:55:22.910Z,47.26
2022-08-10T11:57:53.843Z,47.82
2022-08-10T12:00:22.420Z,47.96
2022-08-10T12:03:02.186Z,46.39
2022-08-10T12:05:52.547Z,46.83
2022-08-10T12:10:05.906Z,46.73
2022-08-10T12:11:12.778Z,45.93
2022-08-10T12:14:19.854Z,46.69
2022-08-10T12:16:50.346Z,46.62
2022-08-10T12:19:27.944Z,45.61
2022-08-10T12:22:05.088Z,44.99
2022-08-10T12:24:38.777Z,44.55
2022-08-10T12:27:21.375Z,43.47
2022-08-10T12:30:01.798Z,44.00
2022-08-10T12:32:39.973Z,43.71
2022-08-10T12:35:11.541Z,43.84
2022-08-10T12:38:13.321Z,43.61
2022-08-10T12:40:49.148Z,42.93
2022-08-10T12:44:07.998Z,43.10
2022-08-10T12:46:25.122Z,42.12
2022-08-10T12:49:04.055Z,41.62
2022-08-10T12:51:32.508Z,41.32
2022-08-10T12:54:13.805Z,39.66
2022-08-10T12:56:59.952Z,38.54
2022-08-10T12:59:28.161Z,38.62
2022-08-10T13:02:06.964Z,37.19
2022-08-10T13:04:38.834Z,36.36
2022-08-10T13:07:06.828Z,35.71
2022-08-10T13:09:34.594Z,33.77
2022-08-10T13:12:35.780Z,33.34
2022-08-10T13:15:50.043Z,33.96
2022-08-10T13:18:19.066Z,32.70
2022-08-10T13:20:51.475Z,32.80
2022-08-10T13:23:22.809Z,32.18
2022-08-10T13:25:50.906Z,32.36
2022-08-10T13:28:37.278Z,31.28
2022-08-10T13:31:43.783Z,29.77
2022-08-10T13:34:43.569Z,30.36
2022-08-10T13:37:12.293Z,28.90
2022-08-10T13:39:59.676Z,29.81
2022-08-10T13:42:34.454Z,29.35
2022-08-10T13:45:16.352Z,29.93
2022-08-10T13:47:49.419Z,29.38
2022-08-10T13:50:34.832Z,29.38
2022-08-10T13:53:15.497Z,27.93
2022-08-10T13:55:55.544Z,28.77
2022-08-10T13:58:34.744Z,28.50
2022-08-10T14:01:12.843Z,28.98
2022-08-10T14:03:41.278Z,27.86
2022-08-10T14:06:11.965Z,26.90
2022-08-10T14:08:38.957Z,26.36
2022-08-10T14:11:16.051Z,26.23
2022-08-10T14:13:52.462Z,25.49
2022-08-10T14:16:19.941Z,25.87
2022-08-10T14:18:47.976Z,25.79
2022-08-10T14:21:15.139Z,26.87
2022-08-10T14:23:52.076Z,25.29
2022-08-10T14:26:22.389Z,24.67
2022-08-10T14:28:54.811Z,24.83
2022-08-10T14:31:24.901Z,24.17
2022-08-10T14:33:55.624Z,24.00
2022-08-10T14:36:42.567Z,23.39
2022-08-10T14:39:15.522Z,24.25
2022-08-10T14:42:04.169Z,23.62
2022-08-10T14:44:30.901Z,23.79
2022-08-10T14:47:03.969Z,23.20
2022-08-10T14:49:57.089Z,23.13
2022-08-10T14:52:27.251Z,21.55
2022-08-10T14:54:55.147Z,21.38
2022-08-10T14:57:22.532Z,21.35
2022-08-10T15:00:28.089Z,22.45
2022-08-10T15:03:01.377Z,21.52
2022-08-10T15:05:35.975Z,20.80
2022-08-10T15:08:07.056Z,20.72
2022-08-10T15:10:34.006Z,20.43
2022-08-10T15:13:02.149Z,20.25
2022-08-10T15:15:31.355Z,20.01
2022-08-10T15:18:17.742Z,20.37
2022-08-10T15:20:44.737Z,20.34
2022-08-10T15:23:29.991Z,19.69
2022-08-10T15:26:04.796Z,19.74
2022-08-10T15:29:22.296Z,19.01
2022-08-10T15:31:56.752Z,19.06
2022-08-10T15:34:43.312Z,19.39
2022-08-10T15:37:39.629Z,18.86
2022-08-10T15:40:21.969Z,18.72
2022-08-10T15:43:24.511Z,18.70
2022-08-10T15:45:57.925Z,18.86
2022-08-10T15:48:27.855Z,19.80
2022-08-10T15:51:06.134Z,19.12
2022-08-10T15:53:47.015Z,18.59
2022-08-10T15:56:28.196Z,18.73
2022-08-10T15:59:24.653Z,18.11
2022-08-10T16:02:04.188Z,18.73
2022-08-10T16:04:48.786Z,17.88
2022-08-10T16:07:46.223Z,18.25
2022-08-10T16:10:25.812Z,17.41
2022-08-10T16:12:59.325Z,17.17
2022-08-10T16:15:29.468Z,17.03
2022-08-10T16:18:01.712Z,17.91
2022-08-10T16:20:53.390Z,15.97
2022-08-10T16:23:26.033Z,17.38
2022-08-10T16:26:13.282Z,15.56
2022-08-10T16:28:55.881Z,16.63
2022-08-10T16:31:25.219Z,15.42
2022-08-10T16:33:55.314Z,16.81
2022-08-10T16:36:42.323Z,16.71
2022-08-10T16:39:18.106Z,15.08
2022-08-10T16:42:05.194Z,14.49
2022-08-10T16:44:44.368Z,14.82
2022-08-10T16:47:12.371Z,14.83
2022-08-10T16:49:40.055Z,14.99
2022-08-10T16:52:08.002Z,15.62
2022-08-10T16:54:36.171Z,15.58
2022-08-10T16:57:05.026Z,16.79
2022-08-10T16:59:38.359Z,17.09
2022-08-10T17:02:06.018Z,15.94
2022-08-10T17:04:34.305Z,16.83
2022-08-10T17:07:04.798Z,15.43
2022-08-10T17:09:34.031Z,15.17
2022-08-10T17:12:10.782Z,15.71
2022-08-10T17:14:40.199Z,15.70
2022-08-10T17:17:12.280Z,16.20
2022-08-10T17:19:42.996Z,15.95
2022-08-10T17:22:23.502Z,15.37
2022-08-10T17:24:54.822Z,15.40
2022-08-10T17:28:05.749Z,15.17
2022-08-10T17:30:15.844Z,13.71
2022-08-10T17:32:49.949Z,15.15
2022-08-10T17:35:25.914Z,14.34
2022-08-10T17:38:08.510Z,15.49
2022-08-10T17:40:44.806Z,15.14
2022-08-10T17:43:12.091Z,14.71
2022-08-10T17:45:47.792Z,16.35
2022-08-10T17:48:17.557Z,18.46
2022-08-10T17:50:49.395Z,19.98
2022-08-10T17:53:22.909Z,20.55
2022-08-10T17:55:54.624Z,20.28
2022-08-10T17:58:22.258Z,21.88
2022-08-10T18:01:38.350Z,22.23
2022-08-10T18:03:52.602Z,22.07
2022-08-10T18:06:19.985Z,22.48
2022-08-10T18:08:47.801Z,24.05
2022-08-10T18:11:19.618Z,24.21
2022-08-10T18:13:55.952Z,24.23
2022-08-10T18:16:26.608Z,25.34
2022-08-10T18:19:00.178Z,25.30
2022-08-10T18:21:30.704Z,26.57
2022-08-10T18:24:09.915Z,26.90
2022-08-10T18:26:41.113Z,26.29
2022-08-10T18:29:18.375Z,25.72
2022-08-10T18:31:47.340Z,26.02
2022-08-10T18:34:18.786Z,26.68
2022-08-10T18:36:47.288Z,25.94
2022-08-10T18:39:16.219Z,26.08
2022-08-10T18:42:00.720Z,26.48
2022-08-10T18:44:41.600Z,25.99
2022-08-10T18:47:59.293Z,26.38
2022-08-10T18:50:53.750Z,27.38
2022-08-10T18:53:23.161Z,28.27
2022-08-10T18:56:08.640Z,28.89
2022-08-10T18:59:03.088Z,32.13
2022-08-10T19:01:56.356Z,37.20
2022-08-10T19:05:30.865Z,37.54
2022-08-10T19:08:30.808Z,38.62
2022-08-10T19:10:58.288Z,38.31
2022-08-10T19:13:34.259Z,41.64
2022-08-10T19:16:35.534Z,41.80
2022-08-10T19:19:22.494Z,40.71
2022-08-10T19:22:28.813Z,42.89
2022-08-10T19:26:37.980Z,44.01
2022-08-10T19:28:23.337Z,44.74
2022-08-10T19:30:57.877Z,45.16
2022-08-10T19:34:22.390Z,45.72
2022-08-10T19:37:04.935Z,46.04
2022-08-10T19:39:51.479Z,47.35
2022-08-10T19:42:31.894Z,46.17
2022-08-10T19:45:06.846Z,43.91
2022-08-10T19:47:51.073Z,46.97
2022-08-10T19:50:40.327Z,47.65
2022-08-10T19:53:24.808Z,47.11
2022-08-10T19:56:33.573Z,47.52
2022-08-10T20:00:19.781Z,48.72
2022-08-10T20:02:10.042Z,48.70
2022-08-10T20:04:44.975Z,49.12
2022-08-10T20:07:19.066Z,49.29
2022-08-10T20:10:16.924Z,48.03
2022-08-10T20:13:02.122Z,46.18
2022-08-10T20:15:55.201Z,47.81
2022-08-10T20:18:26.364Z,49.89
2022-08-10T20:21:06.182Z,49.63
2022-08-10T20:23:35.384Z,49.74
2022-08-10T20:26:14.451Z,50.27
2022-08-10T20:29:57.188Z,48.46
2022-08-10T20:32:10.860Z,50.94
2022-08-10T20:34:48.022Z,51.45
2022-08-10T20:38:01.925Z,52.02
2022-08-10T20:41:01.783Z,52.10
2022-08-10T20:43:43.477Z,52.58
2022-08-10T20:46:37.933Z,52.73
2022-08-10T20:49:15.975Z,52.32
2022-08-10T20:51:57.956Z,52.20
2022-08-10T20:54:50.967Z,53.36
2022-08-10T20:57:56.145Z,54.53
2022-08-10T21:00:11.209Z,53.89
2022-08-10T21:02:50.293Z,53.55
2022-08-10T21:05:17.057Z,53.80
2022-08-10T21:08:02.886Z,54.07
2022-08-10T21:10:36.200Z,55.09
2022-08-10T21:13:41.169Z,55.41
2022-08-10T21:16:20.400Z,56.14
2022-08-10T21:18:47.506Z,56.50
2022-08-10T21:21:41.039Z,56.29
2022-08-10T21:24:12.569Z,58.28
2022-08-10T21:26:55.844Z,56.65
2022-08-10T21:29:53.907Z,56.08
2022-08-10T21:32:48.369Z,55.47
2022-08-10T21:35:37.639Z,56.99
2022-08-10T21:38:21.387Z,55.08
2022-08-10T21:41:17.090Z,57.29
2022-08-10T21:44:09.072Z,56.98
2022-08-10T21:47:07.576Z,57.60
2022-08-10T21:50:25.504Z,58.53
2022-08-10T21:53:43.994Z,55.19
2022-08-10T21:57:05.449Z,57.19
2022-08-10T21:59:58.845Z,58.01
2022-08-10T22:02:50.249Z,59.45
2022-08-10T22:05:43.265Z,59.35
2022-08-10T22:08:29.673Z,58.57
2022-08-10T22:11:16.801Z,59.82
2022-08-10T22:14:06.719Z,60.54
2022-08-10T22:17:05.338Z,61.53
2022-08-10T22:19:57.405Z,60.26
2022-08-10T22:22:56.517Z,59.12
2022-08-10T22:26:04.344Z,57.04
2022-08-10T22:28:50.173Z,58.74
2022-08-10T22:32:10.470Z,56.34
2022-08-10T22:35:14.495Z,59.22
2022-08-10T22:38:37.581Z,59.94
2022-08-10T22:41:34.554Z,59.64
2022-08-10T22:44:21.103Z,59.89
2022-08-10T22:47:07.087Z,61.53
2022-08-10T22:49:34.067Z,60.90
2022-08-10T22:52:08.491Z,62.45
2022-08-10T22:55:07.708Z,61.95
2022-08-10T22:57:53.387Z,60.69
2022-08-10T23:00:31.286Z,60.42
2022-08-10T23:03:22.188Z,60.82
2022-08-10T23:05:59.102Z,61.23
2022-08-10T23:08:32.372Z,61.47
2022-08-10T23:11:08.339Z,63.06
2022-08-10T23:13:42.443Z,63.83
2022-08-10T23:16:54.550Z,63.59
2022-08-10T23:19:30.602Z,62.92
2022-08-10T23:22:09.961Z,62.53
2022-08-10T23:24:40.218Z,63.37
2022-08-10T23:27:13.002Z,63.75
2022-08-10T23:30:09.749Z,65.53
2022-08-10T23:32:52.156Z,63.42
2022-08-10T23:36:05.513Z,63.86
2022-08-10T23:38:10.806Z,65.25
2022-08-10T23:40:38.496Z,65.33
2022-08-10T23:43:05.582Z,65.43
2022-08-10T23:45:53.164Z,66.43
2022-08-10T23:48:22.641Z,67.58
2022-08-10T23:51:16.305Z,66.05
2022-08-10T23:53:45.411Z,65.85
2022-08-10T23:56:14.792Z,65.52
2022-08-10T23:58:44.592Z,65.75
